New Sweden, Idaho
Current Conditions -  °F | °C
As of 5:33 AM on Monday 26 Jan 2015 (Local Time) from KIDA Reporting Station
Haze Haze  
Wind Chill: 22°   Ceiling: 200
Heat Index: 22°   Visibility: 3mi
Dew Point: 20°   Wind: 0mph
Humidity: 92%   Direction: NA
Pressure: 30.43"   Gusts: NA
Location:  43.498°N, 111.73°W
Report Text: KIDA 261233Z AUTO 00000KT 3SM BR BKN002 M06/M07 A3043 RMK AO2 I1000 T10561067
Loading
Personal Weather Stations






























Interactive Weather Map New forecast layout! Learn more

10-Day Weather Forecast

Advertisements
Track Severe Weather on mobile